Portland, OR

8:17 AM PDT on March 24, 2017 (GMT -0700)
Ardenwald Station #1 | | Change Station
Active Advisory: Flood Warning

Elev 161 ft 45.46 °N, 122.63 °W | Updated 2 minutes ago

Rain
Rain
46.7 °F
Feels Like 46.7 °F
N
0.0
Wind Variable Wind from SSE
Gusts 3.0 mph

Today
High -- | Low -- °F
--% Chance of Precip.
Yesterday
High -- | Low -- °F
Precip. -- in
Pressure 29.85 in
Visibility 10.0 miles
Clouds Overcast 4700 ft
Dew Point 45.3 °F
Humidity 95%
Rainfall 0.40 in
Snow Depth Not available.
7:05 AM 7:29 PM
Waning Crescent, 14% visible
METAR KPDX 241453Z 12012KT 10SM -RA OVC047 08/08 A2985 RMK AO2 SLP107 P0002 60019 T00830083 51008
Pressure 29.85 in
Visibility 10.0 miles
Clouds Overcast 4700 ft
Dew Point 45.3 °F
Humidity 95%
Rainfall 0.40 in
Snow Depth Not available.
7:05 AM 7:29 PM
Waning Crescent, 14% visible
METAR KPDX 241453Z 12012KT 10SM -RA OVC047 08/08 A2985 RMK AO2 SLP107 P0002 60019 T00830083 51008

Get Your Daily Forecast Email!

Thanks for signing up!

Be on the lookout for a verification email in your inbox.

You'll start receiving severe weather alerts in your inbox..

×

10-Day Weather Forecast

Almanac

Astronomy

Mar. 24, 2017 Rise Set
Actual Time
Civil Twilight
Nautical Twilight
Astronomical Twilight
Moon
Length of Visible Light
Length of Day
Tomorrow will be .
, % of the Moon is Illuminated

Today's Extremes

State Highs State Lows

Community

WunderPhotos

Upload Photos

1,962,540 photos uploaded!

WunderBlog® & News

Nearby

Air Quality

  Air Quality AQ Index Pollutant
Not available.

Snow Depth

Station Depth Elevation

Earthquake Activity

City Distance Mag. Time & Date
Minimum magnitude displayed is 2.5.

Earthquake Activity

City Distance Mag. Time & Date
Minimum magnitude displayed is 2.5.

Coastal Water Temperatures

Place Temperature

Stations

Nearby Weather Stations

Station Location Temp. Windchill Dew Point Humidity Wind Precip. Elev Updated Type
                   

Watches & Warnings

Flood Warning
Issued: 4:08 PM PDT Mar. 23, 2017 – National Weather Service

The Flood Warning continues for
the Columbia River at Vancouver.
* At 4 PM Thursday the stage was... 16.8 feet.
* Flood stage is 16.0 feet.
* Forecast... this river will fluctuate between 16.5 and 17.2 feet
through Sunday.
* Impact... above 17 feet, expect flooding of some lowland access
roads, parking areas, and trails in the Portland and Vancouver
area, including Sauvie Island and Vancouver Lake. Access to some
house-boat communities may be impaired.


Lat... Lon 4555 12228 4567 12265 4576 12274 4576 12286 4556 12269